Time;durP1;ratioP1;P1;durP2;ratioP2;P2;SDS_P1;SDS_P2;PMS_P1;PMS_P2;Temp;Humidity;BMP_temperature;BMP_pressure;BME280_temperature;BME280_humidity;BME280_pressure;Samples;Min_cycle;Max_cycle;Signal;HPM_P1;HPM_P2
2021/05/19 00:01:22;;;;;;;7.65;5.45;;;;;;;;;;5072126;28;20099;-84
2021/05/19 00:03:48;;;;;;;8.23;5.80;;;;;;;;;;5070941;28;20408;-83
2021/05/19 00:06:14;;;;;;;8.82;5.65;;;;;;;;;;5071165;28;20361;-83
2021/05/19 00:08:40;;;;;;;10.02;6.25;;;;;;;;;;5054481;28;20407;-83
2021/05/19 00:11:06;;;;;;;12.15;6.88;;;;;;;;;;5072156;28;20063;-83
2021/05/19 00:13:34;;;;;;;9.13;5.72;;;;;;;;;;5070818;28;20048;-83
2021/05/19 00:16:00;;;;;;;9.18;5.68;;;;;;;;;;5070917;28;20484;-83
2021/05/19 00:18:26;;;;;;;7.80;5.40;;;;;;;;;;5071885;28;20090;-83
2021/05/19 00:20:52;;;;;;;9.50;5.97;;;;;;;;;;5070974;28;20124;-83
2021/05/19 00:23:18;;;;;;;8.68;5.97;;;;;;;;;;5072124;28;20044;-83
2021/05/19 00:25:44;;;;;;;10.48;6.03;;;;;;;;;;5072059;28;20032;-83
2021/05/19 00:28:10;;;;;;;10.55;6.25;;;;;;;;;;5071969;28;20044;-83
2021/05/19 00:30:37;;;;;;;9.95;5.90;;;;;;;;;;5070781;28;20117;-83
2021/05/19 00:33:04;;;;;;;12.23;6.30;;;;;;;;;;5070699;28;20417;-83
2021/05/19 00:35:30;;;;;;;10.20;6.07;;;;;;;;;;5070878;28;20044;-83
2021/05/19 00:37:56;;;;;;;10.90;6.38;;;;;;;;;;5071622;28;20142;-83
2021/05/19 00:40:22;;;;;;;8.07;6.15;;;;;;;;;;5070531;28;20488;-84
2021/05/19 00:42:49;;;;;;;8.98;5.95;;;;;;;;;;5070554;28;20040;-83
2021/05/19 00:45:15;;;;;;;8.15;6.22;;;;;;;;;;5070851;28;20087;-84
2021/05/19 00:47:41;;;;;;;10.68;6.35;;;;;;;;;;5070527;28;20037;-83
2021/05/19 00:50:08;;;;;;;9.70;6.28;;;;;;;;;;5070460;28;20047;-84
2021/05/19 00:52:36;;;;;;;8.48;6.05;;;;;;;;;;5072438;28;20041;-82
2021/05/19 00:55:02;;;;;;;9.15;5.90;;;;;;;;;;5075398;28;20399;-83
2021/05/19 00:57:28;;;;;;;10.65;6.28;;;;;;;;;;5075246;28;20446;-83
2021/05/19 00:59:54;;;;;;;7.57;5.47;;;;;;;;;;5074159;28;20083;-83
2021/05/19 01:02:20;;;;;;;7.82;5.78;;;;;;;;;;5074256;28;20047;-82
2021/05/19 01:04:46;;;;;;;8.77;5.72;;;;;;;;;;5075474;28;20064;-83
2021/05/19 01:07:25;;;;;;;9.48;5.97;;;;;;;;;;5073936;28;20502;-82
2021/05/19 01:09:51;;;;;;;7.65;5.93;;;;;;;;;;5059044;28;20055;-83
2021/05/19 01:12:18;;;;;;;8.32;5.93;;;;;;;;;;5057539;28;20037;-84
2021/05/19 01:14:44;;;;;;;8.48;5.82;;;;;;;;;;5074278;28;20468;-87
2021/05/19 01:17:10;;;;;;;8.95;5.63;;;;;;;;;;5057301;28;20033;-87
2021/05/19 01:19:39;;;;;;;10.10;5.47;;;;;;;;;;5040429;28;20040;-84
2021/05/19 01:22:11;;;;;;;8.45;5.82;;;;;;;;;;5073836;28;20041;-83
2021/05/19 01:24:38;;;;;;;10.13;6.53;;;;;;;;;;5073628;28;20068;-83
2021/05/19 01:27:04;;;;;;;10.88;5.95;;;;;;;;;;5074761;28;20039;-84
2021/05/19 01:29:30;;;;;;;11.57;5.70;;;;;;;;;;5074924;28;20123;-83
2021/05/19 01:31:56;;;;;;;8.82;5.68;;;;;;;;;;5074808;28;20036;-83
2021/05/19 01:34:22;;;;;;;9.15;5.32;;;;;;;;;;5057003;28;20041;-83
2021/05/19 01:36:48;;;;;;;6.78;5.13;;;;;;;;;;5073358;28;20047;-84
2021/05/19 01:39:14;;;;;;;7.32;4.97;;;;;;;;;;5074637;28;20040;-83
2021/05/19 01:41:41;;;;;;;7.82;5.72;;;;;;;;;;5074678;28;20036;-84
2021/05/19 01:44:11;;;;;;;7.57;5.18;;;;;;;;;;5074521;28;20043;-84
2021/05/19 01:46:37;;;;;;;8.90;5.13;;;;;;;;;;5074462;28;20037;-83
2021/05/19 01:49:03;;;;;;;6.90;5.25;;;;;;;;;;5073276;28;20074;-83
2021/05/19 01:51:31;;;;;;;8.55;5.85;;;;;;;;;;5073237;28;20040;-83
2021/05/19 01:53:59;;;;;;;7.90;5.22;;;;;;;;;;5074420;28;20044;-83
2021/05/19 01:56:25;;;;;;;9.30;6.07;;;;;;;;;;5073278;28;20472;-83
2021/05/19 01:58:51;;;;;;;8.85;6.40;;;;;;;;;;5073060;28;20032;-83
2021/05/19 02:01:17;;;;;;;9.93;6.60;;;;;;;;;;5056578;28;20044;-83
2021/05/19 02:03:43;;;;;;;10.98;6.97;;;;;;;;;;5073666;28;20147;-83
2021/05/19 02:06:09;;;;;;;10.10;7.05;;;;;;;;;;5073889;28;20100;-81
2021/05/19 02:08:38;;;;;;;10.65;6.47;;;;;;;;;;5072954;28;20068;-83
2021/05/19 02:11:04;;;;;;;10.32;6.60;;;;;;;;;;5056254;28;20060;-83
2021/05/19 02:13:30;;;;;;;13.20;7.68;;;;;;;;;;5073923;28;20040;-83
2021/05/19 02:16:00;;;;;;;10.75;6.60;;;;;;;;;;5056586;28;20150;-83
2021/05/19 02:18:26;;;;;;;11.85;7.35;;;;;;;;;;5072604;28;20373;-83
2021/05/19 02:20:52;;;;;;;11.77;6.82;;;;;;;;;;5072598;28;20074;-83
2021/05/19 02:23:18;;;;;;;11.57;7.45;;;;;;;;;;5072756;28;20509;-84
2021/05/19 02:25:44;;;;;;;8.68;6.47;;;;;;;;;;5073782;28;20036;-84
2021/05/19 02:28:10;;;;;;;11.50;7.25;;;;;;;;;;5072385;28;20088;-84
2021/05/19 02:30:36;;;;;;;10.48;6.90;;;;;;;;;;5072424;28;20033;-83
2021/05/19 02:33:05;;;;;;;11.93;7.40;;;;;;;;;;5072357;28;20396;-82
2021/05/19 02:35:31;;;;;;;12.73;7.78;;;;;;;;;;5055850;28;20079;-83
2021/05/19 02:37:57;;;;;;;15.93;8.75;;;;;;;;;;5055495;28;20086;-82
2021/05/19 02:40:23;;;;;;;13.75;8.60;;;;;;;;;;5072272;28;20578;-82
2021/05/19 02:42:49;;;;;;;14.00;8.57;;;;;;;;;;5072332;28;20115;-83
2021/05/19 02:45:16;;;;;;;15.68;8.68;;;;;;;;;;5072230;28;20035;-82
2021/05/19 02:47:42;;;;;;;16.98;9.43;;;;;;;;;;5071976;28;20487;-83
2021/05/19 02:50:08;;;;;;;12.75;8.35;;;;;;;;;;5072025;28;20072;-83
2021/05/19 02:52:34;;;;;;;14.55;8.57;;;;;;;;;;5072060;28;20392;-83
2021/05/19 02:55:04;;;;;;;14.40;8.18;;;;;;;;;;5072102;28;20115;-82
2021/05/19 02:57:30;;;;;;;14.40;9.45;;;;;;;;;;5071862;28;20079;-83
2021/05/19 02:59:56;;;;;;;13.60;8.60;;;;;;;;;;5071852;28;20040;-83
2021/05/19 03:02:22;;;;;;;13.98;8.23;;;;;;;;;;5073005;28;20048;-84
2021/05/19 03:04:48;;;;;;;14.60;9.05;;;;;;;;;;5071914;28;20037;-84
2021/05/19 03:07:14;;;;;;;13.43;9.27;;;;;;;;;;5073045;28;20061;-84
2021/05/19 03:09:40;;;;;;;15.30;7.55;;;;;;;;;;5071730;28;20096;-84
2021/05/19 03:12:07;;;;;;;13.07;8.88;;;;;;;;;;5071858;28;20108;-84
2021/05/19 03:14:33;;;;;;;14.52;8.20;;;;;;;;;;5071517;28;20418;-84
2021/05/19 03:17:01;;;;;;;14.70;9.27;;;;;;;;;;5071881;28;20040;-84
2021/05/19 03:19:29;;;;;;;13.52;8.98;;;;;;;;;;5071459;28;20040;-83
2021/05/19 03:21:55;;;;;;;14.93;9.52;;;;;;;;;;5071633;28;20439;-83
2021/05/19 03:24:21;;;;;;;14.95;8.45;;;;;;;;;;5072830;28;20033;-83
2021/05/19 03:26:47;;;;;;;15.68;9.30;;;;;;;;;;5071284;28;20056;-83
2021/05/19 03:29:13;;;;;;;17.40;10.45;;;;;;;;;;5054757;28;20133;-83
2021/05/19 03:31:39;;;;;;;15.10;10.52;;;;;;;;;;5071325;28;20037;-83
2021/05/19 03:34:05;;;;;;;17.88;10.95;;;;;;;;;;5072586;28;20043;-82
2021/05/19 03:36:31;;;;;;;17.33;11.30;;;;;;;;;;5071380;28;20037;-84
2021/05/19 03:38:57;;;;;;;21.73;11.32;;;;;;;;;;5072494;28;20117;-84
2021/05/19 03:41:23;;;;;;;13.43;8.43;;;;;;;;;;5071451;28;20054;-84
2021/05/19 03:43:49;;;;;;;17.77;10.73;;;;;;;;;;5071343;28;20467;-84
2021/05/19 03:46:18;;;;;;;15.07;9.75;;;;;;;;;;5071168;28;20215;-84
2021/05/19 03:48:44;;;;;;;14.40;9.70;;;;;;;;;;5054667;28;20036;-84
2021/05/19 03:51:10;;;;;;;21.25;11.05;;;;;;;;;;5054635;28;20128;-84
2021/05/19 03:53:36;;;;;;;14.50;10.00;;;;;;;;;;5072362;28;20037;-84
2021/05/19 03:56:03;;;;;;;18.63;11.82;;;;;;;;;;5072331;28;20070;-84
2021/05/19 03:58:29;;;;;;;15.00;9.63;;;;;;;;;;5070936;28;20033;-84
2021/05/19 04:00:55;;;;;;;16.50;9.25;;;;;;;;;;5071115;28;20119;-84
2021/05/19 04:03:21;;;;;;;16.23;10.00;;;;;;;;;;5071192;28;20119;-84
2021/05/19 04:05:47;;;;;;;18.00;10.48;;;;;;;;;;5071101;28;20041;-84
2021/05/19 04:08:13;;;;;;;15.23;10.73;;;;;;;;;;5072162;28;20032;-84
2021/05/19 04:10:39;;;;;;;19.23;11.95;;;;;;;;;;5070951;28;20032;-84
2021/05/19 04:13:05;;;;;;;18.33;11.48;;;;;;;;;;5070999;28;20055;-83
2021/05/19 04:15:31;;;;;;;17.15;10.20;;;;;;;;;;5070966;28;20111;-84
2021/05/19 04:17:58;;;;;;;16.58;10.80;;;;;;;;;;5070920;28;20100;-84
2021/05/19 04:20:24;;;;;;;15.52;11.00;;;;;;;;;;5070894;28;20041;-84
2021/05/19 04:22:50;;;;;;;19.65;12.07;;;;;;;;;;5072117;28;20036;-84
2021/05/19 04:25:16;;;;;;;17.88;10.75;;;;;;;;;;5072157;28;20108;-84
2021/05/19 04:27:42;;;;;;;19.30;11.73;;;;;;;;;;5072902;28;20051;-84
2021/05/19 04:30:08;;;;;;;19.92;11.90;;;;;;;;;;5074760;28;20037;-84
2021/05/19 04:32:34;;;;;;;20.13;11.63;;;;;;;;;;5074692;28;20032;-84
2021/05/19 04:35:00;;;;;;;18.92;10.70;;;;;;;;;;5074766;28;20440;-84
2021/05/19 04:37:26;;;;;;;18.02;11.82;;;;;;;;;;5075659;28;20052;-84
2021/05/19 04:39:52;;;;;;;18.80;11.07;;;;;;;;;;5074513;28;20385;-84
2021/05/19 04:42:18;;;;;;;20.02;12.20;;;;;;;;;;5075776;28;20037;-84
2021/05/19 04:44:44;;;;;;;16.27;11.85;;;;;;;;;;5074418;28;20491;-84
2021/05/19 04:47:11;;;;;;;17.90;11.23;;;;;;;;;;5074340;28;20043;-84
2021/05/19 04:49:37;;;;;;;15.00;10.38;;;;;;;;;;5074399;28;20051;-84
2021/05/19 04:52:04;;;;;;;18.77;11.40;;;;;;;;;;5057734;28;20085;-84
2021/05/19 04:54:31;;;;;;;22.95;13.18;;;;;;;;;;5074397;28;20041;-84
2021/05/19 04:56:58;;;;;;;15.45;10.75;;;;;;;;;;5075419;28;20041;-85
2021/05/19 04:59:24;;;;;;;20.67;13.00;;;;;;;;;;5074189;28;20105;-84
2021/05/19 05:01:50;;;;;;;19.27;11.57;;;;;;;;;;5075301;28;20040;-83
2021/05/19 05:04:16;;;;;;;18.33;11.68;;;;;;;;;;5074170;28;20476;-83
2021/05/19 05:06:43;;;;;;;16.80;11.95;;;;;;;;;;5074033;28;20041;-83
2021/05/19 05:09:09;;;;;;;20.73;11.70;;;;;;;;;;5074011;28;20040;-83
2021/05/19 05:11:35;;;;;;;19.10;10.95;;;;;;;;;;5075032;28;20037;-83
2021/05/19 05:14:01;;;;;;;18.50;11.43;;;;;;;;;;5074097;28;20043;-83
2021/05/19 05:16:27;;;;;;;17.38;10.60;;;;;;;;;;5073910;28;20043;-83
2021/05/19 05:18:53;;;;;;;19.75;11.73;;;;;;;;;;5073917;28;20037;-84
2021/05/19 05:21:19;;;;;;;17.85;11.55;;;;;;;;;;5073872;28;20047;-84
2021/05/19 05:23:46;;;;;;;17.58;11.88;;;;;;;;;;5073759;28;20032;-84
2021/05/19 05:26:14;;;;;;;19.85;12.40;;;;;;;;;;5073582;28;20044;-84
2021/05/19 05:28:43;;;;;;;17.98;11.48;;;;;;;;;;5073790;28;20044;-84
2021/05/19 05:31:09;;;;;;;18.70;11.05;;;;;;;;;;5057238;28;20059;-84
2021/05/19 05:33:35;;;;;;;18.98;12.07;;;;;;;;;;5074943;28;20097;-83
2021/05/19 05:36:01;;;;;;;17.05;11.82;;;;;;;;;;5073806;28;20043;-84
2021/05/19 05:38:27;;;;;;;17.92;12.20;;;;;;;;;;5072331;28;20045;-85
2021/05/19 05:40:53;;;;;;;20.58;12.38;;;;;;;;;;5074588;28;20033;-84
2021/05/19 05:43:19;;;;;;;21.65;11.68;;;;;;;;;;5074635;28;20487;-83
2021/05/19 05:45:45;;;;;;;18.25;11.95;;;;;;;;;;5073369;28;20044;-84
2021/05/19 05:48:11;;;;;;;21.55;12.75;;;;;;;;;;5073379;28;20033;-84
2021/05/19 05:50:37;;;;;;;20.90;12.75;;;;;;;;;;5074416;28;20044;-85
2021/05/19 05:53:03;;;;;;;19.55;13.05;;;;;;;;;;5073423;28;20037;-84
2021/05/19 05:55:29;;;;;;;20.33;12.13;;;;;;;;;;5073288;28;20870;-84
2021/05/19 05:57:57;;;;;;;22.80;13.48;;;;;;;;;;5073084;28;20121;-84
2021/05/19 06:00:23;;;;;;;22.52;13.23;;;;;;;;;;5074254;28;20036;-84
2021/05/19 06:02:49;;;;;;;19.83;12.23;;;;;;;;;;5073105;28;20041;-84
2021/05/19 06:05:15;;;;;;;20.00;13.07;;;;;;;;;;5073088;28;20040;-85
2021/05/19 06:07:41;;;;;;;22.75;12.95;;;;;;;;;;5073988;28;20033;-85
2021/05/19 06:10:07;;;;;;;25.33;12.45;;;;;;;;;;5072746;28;20045;-84
2021/05/19 06:12:33;;;;;;;22.38;12.95;;;;;;;;;;5056363;28;20036;-85
2021/05/19 06:14:59;;;;;;;22.30;12.70;;;;;;;;;;5072899;28;20131;-86
2021/05/19 06:17:26;;;;;;;19.17;12.70;;;;;;;;;;5072791;28;20064;-85
2021/05/19 06:19:52;;;;;;;18.30;11.38;;;;;;;;;;5072670;28;20036;-88
2021/05/19 06:22:18;;;;;;;18.70;11.63;;;;;;;;;;5055987;28;20170;-88
2021/05/19 06:24:44;;;;;;;17.48;11.27;;;;;;;;;;5072932;28;20039;-84
2021/05/19 06:27:11;;;;;;;17.30;10.40;;;;;;;;;;5072404;28;20037;-83
2021/05/19 06:29:37;;;;;;;18.73;11.70;;;;;;;;;;5072419;28;20059;-86
2021/05/19 06:32:03;;;;;;;14.38;10.05;;;;;;;;;;5061159;28;20078;-85
2021/05/19 06:34:30;;;;;;;21.75;13.63;;;;;;;;;;5074949;28;20090;-85
2021/05/19 06:36:56;;;;;;;20.52;13.18;;;;;;;;;;5073584;28;20048;-84
2021/05/19 06:39:23;;;;;;;21.38;13.55;;;;;;;;;;5072671;28;20124;-88
2021/05/19 06:41:52;;;;;;;21.80;12.77;;;;;;;;;;5072376;28;20040;-88
2021/05/19 06:44:18;;;;;;;18.00;11.82;;;;;;;;;;5072175;28;20040;-86
2021/05/19 06:46:44;;;;;;;17.67;11.25;;;;;;;;;;5073196;28;20082;-86
2021/05/19 06:49:12;;;;;;;20.90;12.75;;;;;;;;;;5071683;28;20036;-84
2021/05/19 06:51:38;;;;;;;22.30;12.88;;;;;;;;;;5071015;28;20044;-85
2021/05/19 06:54:04;;;;;;;20.60;12.70;;;;;;;;;;5073832;28;20041;-87
2021/05/19 06:56:30;;;;;;;25.08;14.63;;;;;;;;;;5040487;28;20040;-84
2021/05/19 06:58:58;;;;;;;21.25;12.35;;;;;;;;;;5055534;28;20056;-83
2021/05/19 07:01:24;;;;;;;18.42;10.93;;;;;;;;;;5071799;28;20549;-86
2021/05/19 07:03:50;;;;;;;22.27;13.73;;;;;;;;;;5072947;28;20084;-84
2021/05/19 07:06:17;;;;;;;20.35;13.32;;;;;;;;;;5071385;28;20037;-84
2021/05/19 07:08:43;;;;;;;25.33;14.07;;;;;;;;;;5071423;28;20044;-84
2021/05/19 07:11:09;;;;;;;27.52;13.75;;;;;;;;;;5071563;28;20036;-85
2021/05/19 07:13:35;;;;;;;25.83;15.20;;;;;;;;;;5071609;28;20036;-84
2021/05/19 07:16:02;;;;;;;26.10;14.30;;;;;;;;;;5072638;28;20064;-85
2021/05/19 07:18:28;;;;;;;30.23;15.95;;;;;;;;;;5071215;28;20036;-84
2021/05/19 07:20:54;;;;;;;28.88;15.57;;;;;;;;;;5072386;28;20119;-84
2021/05/19 07:23:20;;;;;;;27.42;14.95;;;;;;;;;;5071321;28;20068;-84
2021/05/19 07:25:46;;;;;;;24.88;14.48;;;;;;;;;;5071261;28;20066;-84
2021/05/19 07:28:12;;;;;;;30.90;15.57;;;;;;;;;;5071250;28;20506;-84
2021/05/19 07:30:38;;;;;;;27.88;16.77;;;;;;;;;;5054703;28;20045;-84
2021/05/19 07:33:06;;;;;;;30.98;17.17;;;;;;;;;;5054813;28;20044;-84
2021/05/19 07:35:32;;;;;;;29.20;14.82;;;;;;;;;;5071124;28;20051;-84
2021/05/19 07:37:58;;;;;;;29.75;14.77;;;;;;;;;;5072085;28;20514;-84
2021/05/19 07:40:24;;;;;;;27.55;16.35;;;;;;;;;;5071017;28;20060;-84
2021/05/19 07:42:50;;;;;;;34.78;17.95;;;;;;;;;;5037999;28;20040;-84
2021/05/19 07:45:16;;;;;;;34.88;18.88;;;;;;;;;;5071026;28;20471;-85
2021/05/19 07:47:42;;;;;;;25.60;15.15;;;;;;;;;;5070923;28;20042;-84
2021/05/19 07:50:09;;;;;;;31.77;17.30;;;;;;;;;;5071310;28;20123;-84
2021/05/19 07:52:35;;;;;;;33.50;18.75;;;;;;;;;;5071252;28;20047;-85
2021/05/19 07:55:04;;;;;;;31.77;18.05;;;;;;;;;;5070975;28;20028;-85
2021/05/19 07:57:48;;;;;;;29.40;17.58;;;;;;;;;;5054500;28;20036;-84
2021/05/19 08:00:18;;;;;;;33.67;18.52;;;;;;;;;;5070822;28;20036;-84
2021/05/19 08:02:44;;;;;;;27.77;17.05;;;;;;;;;;5070467;28;20093;-84
2021/05/19 08:05:11;;;;;;;37.58;18.33;;;;;;;;;;5070970;28;20436;-83
2021/05/19 08:07:37;;;;;;;29.65;16.85;;;;;;;;;;5071084;28;20039;-84
2021/05/19 08:10:03;;;;;;;32.13;16.95;;;;;;;;;;5054181;28;20052;-84
2021/05/19 08:12:29;;;;;;;24.20;15.18;;;;;;;;;;5071019;28;20107;-84
2021/05/19 08:14:55;;;;;;;27.38;17.20;;;;;;;;;;5070695;28;20041;-84
2021/05/19 08:17:21;;;;;;;23.25;14.40;;;;;;;;;;5070667;28;20112;-84
2021/05/19 08:19:47;;;;;;;22.77;15.15;;;;;;;;;;5070645;28;20460;-84
2021/05/19 08:22:13;;;;;;;22.45;14.27;;;;;;;;;;5070665;28;20036;-85
2021/05/19 08:24:40;;;;;;;19.77;13.00;;;;;;;;;;5071960;28;20036;-84
2021/05/19 08:27:06;;;;;;;18.52;11.93;;;;;;;;;;5072262;28;20161;-84
2021/05/19 08:29:32;;;;;;;17.58;12.05;;;;;;;;;;5070559;28;20088;-85
2021/05/19 08:31:59;;;;;;;15.30;10.30;;;;;;;;;;5070548;28;20037;-84
2021/05/19 08:34:25;;;;;;;15.00;9.77;;;;;;;;;;5070557;28;20461;-85
2021/05/19 08:36:51;;;;;;;13.63;9.85;;;;;;;;;;5070293;28;20113;-84
2021/05/19 08:39:18;;;;;;;15.35;10.38;;;;;;;;;;5070504;28;20043;-85
2021/05/19 08:41:45;;;;;;;14.63;10.98;;;;;;;;;;5071657;28;20369;-84
2021/05/19 08:44:11;;;;;;;15.90;9.85;;;;;;;;;;5053970;28;20115;-85
2021/05/19 08:46:42;;;;;;;14.65;8.68;;;;;;;;;;5070623;28;20041;-85
2021/05/19 08:49:09;;;;;;;11.13;7.55;;;;;;;;;;5071847;28;20036;-84
2021/05/19 08:51:35;;;;;;;10.13;7.40;;;;;;;;;;5070450;28;20535;-85
2021/05/19 08:54:02;;;;;;;10.70;7.50;;;;;;;;;;5071566;28;20116;-84
2021/05/19 08:56:28;;;;;;;10.35;8.10;;;;;;;;;;5071431;28;20032;-85
2021/05/19 08:58:54;;;;;;;13.20;8.23;;;;;;;;;;5071398;28;20101;-85
2021/05/19 09:01:22;;;;;;;10.60;8.10;;;;;;;;;;5071560;28;20036;-85
2021/05/19 09:04:01;;;;;;;12.02;7.85;;;;;;;;;;5070485;28;20106;-86
2021/05/19 09:06:27;;;;;;;9.43;7.53;;;;;;;;;;5053685;28;20071;-85
2021/05/19 09:08:53;;;;;;;11.48;7.30;;;;;;;;;;5070300;28;20083;-85
2021/05/19 09:11:19;;;;;;;9.10;7.47;;;;;;;;;;5070086;28;20045;-85
2021/05/19 09:13:46;;;;;;;9.65;7.78;;;;;;;;;;5070809;28;20399;-84
2021/05/19 09:16:15;;;;;;;10.05;7.05;;;;;;;;;;5073977;28;20048;-84
2021/05/19 09:19:01;;;;;;;11.38;7.90;;;;;;;;;;5057553;28;20044;-84
2021/05/19 09:21:40;;;;;;;13.07;7.95;;;;;;;;;;5074785;28;20044;-84
2021/05/19 09:24:10;;;;;;;11.45;7.97;;;;;;;;;;5074881;28;20039;-84
2021/05/19 09:26:56;;;;;;;9.27;8.05;;;;;;;;;;5073566;28;20045;-85
2021/05/19 09:29:23;;;;;;;8.63;7.65;;;;;;;;;;5073556;28;20040;-84
2021/05/19 09:32:02;;;;;;;12.45;8.05;;;;;;;;;;5073657;28;20036;-84
2021/05/19 09:34:29;;;;;;;12.32;8.85;;;;;;;;;;5073364;28;20036;-84
2021/05/19 09:37:03;;;;;;;13.55;9.85;;;;;;;;;;5073284;28;20105;-84
2021/05/19 09:39:43;;;;;;;13.90;9.93;;;;;;;;;;5056756;28;20041;-85
2021/05/19 09:42:09;;;;;;;13.98;9.98;;;;;;;;;;5074484;28;20444;-85
2021/05/19 09:44:35;;;;;;;14.80;10.63;;;;;;;;;;5056514;28;20267;-84
2021/05/19 09:47:01;;;;;;;12.05;9.32;;;;;;;;;;5074366;28;20064;-85
2021/05/19 09:49:28;;;;;;;12.57;7.50;;;;;;;;;;5073293;28;20061;-85
2021/05/19 09:51:57;;;;;;;14.55;9.32;;;;;;;;;;5073265;28;20051;-84
2021/05/19 09:54:38;;;;;;;10.35;8.30;;;;;;;;;;5056709;28;20079;-84
2021/05/19 09:57:09;;;;;;;11.23;9.48;;;;;;;;;;5056520;28;20584;-85
2021/05/19 09:59:35;;;;;;;16.02;10.63;;;;;;;;;;5074134;28;20072;-84
2021/05/19 10:02:03;;;;;;;15.77;11.43;;;;;;;;;;5072807;28;20044;-84
2021/05/19 10:04:38;;;;;;;14.07;10.80;;;;;;;;;;5072826;28;20040;-84
2021/05/19 10:07:10;;;;;;;14.13;10.38;;;;;;;;;;5057433;28;20041;-85
2021/05/19 10:09:36;;;;;;;17.20;11.55;;;;;;;;;;5072893;28;20232;-84
2021/05/19 10:12:03;;;;;;;16.38;11.60;;;;;;;;;;5072735;28;20066;-84
2021/05/19 10:14:29;;;;;;;18.55;11.07;;;;;;;;;;5073845;28;20036;-85
2021/05/19 10:16:58;;;;;;;18.08;11.90;;;;;;;;;;5072570;28;20090;-85
2021/05/19 10:19:27;;;;;;;10.38;6.97;;;;;;;;;;5072444;28;20041;-89
2021/05/19 10:21:53;;;;;;;5.57;2.78;;;;;;;;;;5072430;28;20510;-87
2021/05/19 10:24:22;;;;;;;3.63;2.55;;;;;;;;;;5074891;28;20049;-86
2021/05/19 10:27:04;;;;;;;3.53;2.17;;;;;;;;;;5059565;28;20040;-85
2021/05/19 10:29:46;;;;;;;4.63;2.33;;;;;;;;;;5072479;28;20032;-84
2021/05/19 10:32:34;;;;;;;3.47;1.00;;;;;;;;;;5073469;28;20071;-84
2021/05/19 10:35:01;;;;;;;2.28;0.80;;;;;;;;;;5072904;28;20036;-84
2021/05/19 10:37:27;;;;;;;2.95;1.48;;;;;;;;;;5071942;28;20076;-84
2021/05/19 10:40:20;;;;;;;1.98;1.00;;;;;;;;;;5073054;28;20399;-84
2021/05/19 10:42:52;;;;;;;1.90;1.20;;;;;;;;;;5072978;28;20049;-85
2021/05/19 10:45:19;;;;;;;1.85;1.45;;;;;;;;;;5055293;28;20041;-84
2021/05/19 10:47:45;;;;;;;3.72;1.30;;;;;;;;;;5071913;28;20049;-85
2021/05/19 10:50:33;;;;;;;3.85;1.95;;;;;;;;;;5071845;28;20040;-84
2021/05/19 10:58:49;;;;;;;2.78;2.10;;;;;;;;;;5071617;28;20132;-84
2021/05/19 11:01:16;;;;;;;4.07;2.00;;;;;;;;;;5056611;28;20037;-85
2021/05/19 11:04:02;;;;;;;2.95;2.67;;;;;;;;;;5071464;28;20446;-84
2021/05/19 11:06:28;;;;;;;3.22;2.80;;;;;;;;;;5072424;28;20041;-84
2021/05/19 11:08:58;;;;;;;3.38;2.97;;;;;;;;;;5072826;28;20541;-85
2021/05/19 11:11:32;;;;;;;4.82;3.10;;;;;;;;;;5071458;28;20048;-85
2021/05/19 11:14:08;;;;;;;3.80;3.22;;;;;;;;;;5055830;28;20086;-84
2021/05/19 11:16:50;;;;;;;4.18;3.00;;;;;;;;;;5055690;28;20040;-86
2021/05/19 11:19:26;;;;;;;3.90;3.53;;;;;;;;;;5072522;28;20064;-85
2021/05/19 11:21:58;;;;;;;3.83;2.88;;;;;;;;;;5071188;28;20040;-84
2021/05/19 11:24:27;;;;;;;2.20;2.00;;;;;;;;;;5071136;28;20086;-84
2021/05/19 11:26:53;;;;;;;3.70;3.15;;;;;;;;;;5054756;28;20121;-84
2021/05/19 11:29:19;;;;;;;2.72;2.53;;;;;;;;;;5071299;28;20045;-87
2021/05/19 11:31:49;;;;;;;2.97;2.60;;;;;;;;;;5071220;28;20098;-85
2021/05/19 11:34:15;;;;;;;3.58;2.70;;;;;;;;;;5071857;28;20103;-85
2021/05/19 11:36:42;;;;;;;3.42;2.45;;;;;;;;;;5052874;28;20037;-86
2021/05/19 11:39:28;;;;;;;2.47;2.28;;;;;;;;;;5071037;28;20051;-86
2021/05/19 11:41:55;;;;;;;2.13;1.92;;;;;;;;;;5071102;28;20043;-85
2021/05/19 11:44:41;;;;;;;2.40;2.20;;;;;;;;;;5072376;28;20052;-85
2021/05/19 11:47:08;;;;;;;2.45;1.85;;;;;;;;;;5070985;28;20044;-85
2021/05/19 11:49:34;;;;;;;1.58;1.48;;;;;;;;;;5037598;28;20516;-86
2021/05/19 11:52:00;;;;;;;1.83;1.63;;;;;;;;;;5072182;28;20033;-85
2021/05/19 11:54:26;;;;;;;3.20;1.48;;;;;;;;;;5072195;28;20239;-84
2021/05/19 11:56:53;;;;;;;1.33;1.23;;;;;;;;;;5070971;28;20047;-84
2021/05/19 11:59:27;;;;;;;1.30;1.17;;;;;;;;;;5054502;28;20361;-85
2021/05/19 12:02:20;;;;;;;1.95;1.13;;;;;;;;;;5070948;28;20048;-84
2021/05/19 12:04:48;;;;;;;1.25;1.15;;;;;;;;;;5071891;28;20171;-85
2021/05/19 12:07:16;;;;;;;3.47;1.30;;;;;;;;;;5070718;28;20036;-84
2021/05/19 12:09:43;;;;;;;1.83;1.70;;;;;;;;;;5054506;28;20441;-85
2021/05/19 12:12:16;;;;;;;2.60;1.70;;;;;;;;;;5070744;28;20032;-84
2021/05/19 12:14:56;;;;;;;2.85;1.90;;;;;;;;;;5070742;28;20369;-85
2021/05/19 12:17:25;;;;;;;3.45;2.35;;;;;;;;;;5054227;28;20086;-84
2021/05/19 12:19:51;;;;;;;3.17;2.03;;;;;;;;;;5070749;28;20409;-84
2021/05/19 12:22:18;;;;;;;3.08;2.00;;;;;;;;;;5070718;28;20491;-85
2021/05/19 12:24:44;;;;;;;3.65;2.10;;;;;;;;;;5070641;28;20033;-85
2021/05/19 12:27:10;;;;;;;3.25;1.73;;;;;;;;;;5053750;28;20492;-84
2021/05/19 12:29:37;;;;;;;3.10;1.77;;;;;;;;;;5070624;28;20041;-84
2021/05/19 12:32:19;;;;;;;2.78;1.70;;;;;;;;;;5070631;28;20094;-84
2021/05/19 12:34:46;;;;;;;3.95;1.90;;;;;;;;;;5070597;28;20083;-83
2021/05/19 12:37:12;;;;;;;2.47;1.70;;;;;;;;;;5071442;28;20056;-86
2021/05/19 12:39:38;;;;;;;2.83;1.75;;;;;;;;;;5070257;28;20120;-84
2021/05/19 12:42:14;;;;;;;3.33;1.73;;;;;;;;;;5071656;28;20036;-84
2021/05/19 12:44:40;;;;;;;2.53;1.80;;;;;;;;;;5070479;28;20040;-84
2021/05/19 12:47:07;;;;;;;2.95;1.60;;;;;;;;;;5070372;28;20040;-84
2021/05/19 12:49:33;;;;;;;3.90;1.77;;;;;;;;;;5073810;28;20120;-83
2021/05/19 12:52:00;;;;;;;1.75;1.50;;;;;;;;;;5074001;28;20553;-83
2021/05/19 12:54:32;;;;;;;1.60;1.20;;;;;;;;;;5074129;28;20412;-84
2021/05/19 12:56:59;;;;;;;6.35;1.88;;;;;;;;;;5073974;28;20064;-85
2021/05/19 12:59:25;;;;;;;6.72;1.95;;;;;;;;;;5073974;28;20044;-85
2021/05/19 13:01:52;;;;;;;2.17;1.38;;;;;;;;;;5073931;28;20059;-85
2021/05/19 13:04:20;;;;;;;1.33;1.20;;;;;;;;;;5073973;28;20062;-86
2021/05/19 13:06:52;;;;;;;2.50;1.70;;;;;;;;;;5073939;28;20041;-84
2021/05/19 13:09:21;;;;;;;2.22;1.52;;;;;;;;;;5073217;28;20044;-85
2021/05/19 13:12:03;;;;;;;2.15;1.35;;;;;;;;;;5070157;28;20063;-85
2021/05/19 13:14:33;;;;;;;3.00;1.75;;;;;;;;;;5039233;28;20452;-85
2021/05/19 13:17:03;;;;;;;2.53;1.90;;;;;;;;;;5053559;28;20047;-85
2021/05/19 13:19:30;;;;;;;2.30;1.70;;;;;;;;;;5053775;28;20060;-85
2021/05/19 13:21:56;;;;;;;3.03;1.88;;;;;;;;;;5037453;28;20089;-85
2021/05/19 13:24:22;;;;;;;2.15;1.60;;;;;;;;;;5054774;28;20037;-85
2021/05/19 13:27:01;;;;;;;2.50;1.73;;;;;;;;;;5053443;28;20040;-85
2021/05/19 13:29:27;;;;;;;2.55;1.75;;;;;;;;;;5037216;28;20068;-85
2021/05/19 13:37:03;;;;;;;2.58;1.27;;;;;;;;;;5054318;28;20147;-85
2021/05/19 13:39:29;;;;;;;2.67;1.50;;;;;;;;;;5053208;28;20041;-84
2021/05/19 13:41:56;;;;;;;1.80;1.40;;;;;;;;;;5036827;28;20485;-84
2021/05/19 13:44:22;;;;;;;1.60;1.42;;;;;;;;;;5053253;28;20037;-85
2021/05/19 13:46:49;;;;;;;3.97;1.77;;;;;;;;;;5020078;28;20045;-84
2021/05/19 13:49:27;;;;;;;2.38;1.58;;;;;;;;;;5053181;28;20033;-84
2021/05/19 13:52:03;;;;;;;2.20;1.52;;;;;;;;;;5038085;28;20532;-84
2021/05/19 13:54:32;;;;;;;2.30;1.60;;;;;;;;;;5052919;28;20052;-85
2021/05/19 13:56:58;;;;;;;2.00;1.80;;;;;;;;;;5052998;28;20036;-85
2021/05/19 13:59:24;;;;;;;3.08;1.95;;;;;;;;;;5052159;28;20069;-85
2021/05/19 14:01:50;;;;;;;1.60;1.50;;;;;;;;;;5054043;28;20029;-85
2021/05/19 14:04:16;;;;;;;4.28;1.80;;;;;;;;;;5052815;28;20159;-85
2021/05/19 14:06:42;;;;;;;2.13;1.92;;;;;;;;;;5052636;28;20079;-86
2021/05/19 14:09:10;;;;;;;1.98;1.40;;;;;;;;;;5052632;28;20114;-85
2021/05/19 14:27:43;;;;;;;3.25;1.80;;;;;;;;;;5052526;28;20040;-85
2021/05/19 14:30:10;;;;;;;2.42;2.10;;;;;;;;;;5035825;28;20538;-84
2021/05/19 14:32:36;;;;;;;1.88;1.55;;;;;;;;;;5053520;28;20041;-85
2021/05/19 14:35:08;;;;;;;3.03;1.63;;;;;;;;;;5052243;28;20041;-84
2021/05/19 15:01:27;;;;;;;1.77;1.17;;;;;;;;;;5052786;28;20033;-85
2021/05/19 15:03:53;;;;;;;1.70;1.30;;;;;;;;;;5051544;28;20041;-85
2021/05/19 15:06:19;;;;;;;1.33;1.10;;;;;;;;;;5034736;28;20033;-85
2021/05/19 15:08:45;;;;;;;1.30;1.10;;;;;;;;;;5051391;28;20044;-84
2021/05/19 15:11:12;;;;;;;1.05;1.00;;;;;;;;;;5051335;28;20044;-85
2021/05/19 15:13:39;;;;;;;1.20;1.10;;;;;;;;;;5034771;28;20393;-83
2021/05/19 15:16:05;;;;;;;1.85;1.15;;;;;;;;;;5051129;28;20037;-85
2021/05/19 15:18:31;;;;;;;3.33;1.20;;;;;;;;;;5028038;28;20230;-84
2021/05/19 15:20:57;;;;;;;1.08;0.93;;;;;;;;;;5071031;28;20076;-84
2021/05/19 15:23:23;;;;;;;2.67;1.00;;;;;;;;;;5071148;28;20094;-84
2021/05/19 15:25:50;;;;;;;1.92;1.08;;;;;;;;;;5072205;28;20064;-85